Mauckport, Indiana
Current Conditions -  °F | °C
As of 4:58 PM on Saturday 25 Oct 2014 (Local Time) from KFTK Reporting Station
Clear Clear  
Wind Chill: 75°   Ceiling: Unl
Heat Index: 75°   Visibility: 10mi
Dew Point: 58°   Wind: 12mph
Humidity: 56%   Direction: 260°W
Pressure: 29.97"   Gusts: NA
Location:  38.03°N, 86.2°W
Report Text: KFTK 252058Z AUTO 26010KT 10SM CLR 24/15 A2997 RMK AO2 SLP149 T02380145 55002
Loading
Personal Weather Stations






























Interactive Weather Map
Tropical Storm Tracking
New forecast layout! Learn more

10-Day Weather Forecast

Advertisements
Track Severe Weather on mobile